createdAt,value
2022-09-28T00:01:24.818Z,8.09
2022-09-28T00:03:53.997Z,8.06
2022-09-28T00:06:24.444Z,8.09
2022-09-28T00:08:51.149Z,8.10
2022-09-28T00:11:20.577Z,8.12
2022-09-28T00:13:53.025Z,8.12
2022-09-28T00:16:24.027Z,8.10
2022-09-28T00:18:51.342Z,8.12
2022-09-28T00:21:23.206Z,8.12
2022-09-28T00:24:12.852Z,8.10
2022-09-28T00:26:41.749Z,8.10
2022-09-28T00:29:16.344Z,8.13
2022-09-28T00:31:43.068Z,8.10
2022-09-28T00:34:09.599Z,8.09
2022-09-28T00:36:36.159Z,8.09
2022-09-28T00:39:07.723Z,8.12
2022-09-28T00:41:34.903Z,8.09
2022-09-28T00:44:26.236Z,8.10
2022-09-28T00:47:01.924Z,8.09
2022-09-28T00:49:41.768Z,8.06
2022-09-28T00:52:12.644Z,8.09
2022-09-28T00:54:39.843Z,8.13
2022-09-28T00:57:06.330Z,8.13
2022-09-28T00:59:33.686Z,8.17
2022-09-28T01:02:01.281Z,8.21
2022-09-28T01:04:29.999Z,8.16
2022-09-28T01:06:57.833Z,8.15
2022-09-28T01:09:25.864Z,8.15
2022-09-28T01:11:52.249Z,8.10
2022-09-28T01:14:20.681Z,8.16
2022-09-28T01:16:59.933Z,8.16
2022-09-28T01:19:32.049Z,8.16
2022-09-28T01:22:14.248Z,8.17
2022-09-28T01:24:47.446Z,8.15
2022-09-28T01:27:22.685Z,8.19
2022-09-28T01:29:59.520Z,8.22
2022-09-28T01:32:42.587Z,8.16
2022-09-28T01:35:39.418Z,8.16
2022-09-28T01:38:21.603Z,8.15
2022-09-28T01:40:49.191Z,8.16
2022-09-28T01:43:25.254Z,8.17
2022-09-28T01:45:55.698Z,8.13
2022-09-28T01:48:37.122Z,8.15
2022-09-28T01:51:08.134Z,8.17
2022-09-28T01:53:41.692Z,8.13
2022-09-28T01:56:15.681Z,8.17
2022-09-28T01:59:06.431Z,8.22
2022-09-28T02:02:02.163Z,8.17
2022-09-28T02:04:50.610Z,8.17
2022-09-28T02:07:51.366Z,8.23
2022-09-28T02:10:25.532Z,8.22
2022-09-28T02:12:57.579Z,8.28
2022-09-28T02:15:33.877Z,8.29
2022-09-28T02:18:00.397Z,8.30
2022-09-28T02:20:28.475Z,8.33
2022-09-28T02:22:58.085Z,8.33
2022-09-28T02:25:55.395Z,8.32
2022-09-28T02:28:21.899Z,8.32
2022-09-28T02:30:48.301Z,8.30
2022-09-28T02:33:23.148Z,8.37
2022-09-28T02:35:49.561Z,8.32
2022-09-28T02:38:16.275Z,8.32
2022-09-28T02:40:48.335Z,8.32
2022-09-28T02:43:22.237Z,8.32
2022-09-28T02:46:29.863Z,8.33
2022-09-28T02:49:21.917Z,8.30
2022-09-28T02:51:54.593Z,8.30
2022-09-28T02:55:12.977Z,8.32
2022-09-28T02:57:50.116Z,8.29
2022-09-28T03:00:22.800Z,8.26
2022-09-28T03:03:08.837Z,8.22
2022-09-28T03:06:03.340Z,8.22
2022-09-28T03:08:35.738Z,8.17
2022-09-28T03:11:15.257Z,8.17
2022-09-28T03:13:42.535Z,8.21
2022-09-28T03:16:20.151Z,8.21
2022-09-28T03:18:46.745Z,8.23
2022-09-28T03:21:14.282Z,8.23
2022-09-28T03:23:41.783Z,8.25
2022-09-28T03:26:10.823Z,8.23
2022-09-28T03:28:37.393Z,8.23
2022-09-28T03:31:03.890Z,8.17
2022-09-28T03:33:30.386Z,8.16
2022-09-28T03:35:56.809Z,8.17
2022-09-28T03:38:23.269Z,8.15
2022-09-28T03:40:57.339Z,8.16
2022-09-28T03:43:24.778Z,8.17
2022-09-28T03:46:01.521Z,8.12
2022-09-28T03:48:32.557Z,7.99
2022-09-28T03:51:01.381Z,7.89
2022-09-28T03:53:29.622Z,7.77
2022-09-28T03:55:56.765Z,7.65
2022-09-28T03:58:23.200Z,7.55
2022-09-28T04:00:50.292Z,7.41
2022-09-28T04:03:16.807Z,7.33
2022-09-28T04:05:50.705Z,7.23
2022-09-28T04:08:17.730Z,7.14
2022-09-28T04:10:44.381Z,7.09
2022-09-28T04:13:10.931Z,6.99
2022-09-28T04:15:38.475Z,6.92
2022-09-28T04:18:12.395Z,6.89
2022-09-28T04:20:41.019Z,6.96
2022-09-28T04:23:07.474Z,7.07
2022-09-28T04:25:33.852Z,7.10
2022-09-28T04:28:18.863Z,7.19
2022-09-28T04:30:47.330Z,7.19
2022-09-28T04:33:14.055Z,7.17
2022-09-28T04:35:40.695Z,7.19
2022-09-28T04:38:07.023Z,7.20
2022-09-28T04:40:33.471Z,7.20
2022-09-28T04:42:59.884Z,7.23
2022-09-28T04:45:26.955Z,7.23
2022-09-28T04:47:53.791Z,7.26
2022-09-28T04:50:20.594Z,7.28
2022-09-28T04:52:47.028Z,7.33
2022-09-28T04:55:14.381Z,7.33
2022-09-28T04:57:41.070Z,7.38
2022-09-28T05:00:08.922Z,7.40
2022-09-28T05:02:35.452Z,7.41
2022-09-28T05:05:02.008Z,7.37
2022-09-28T05:07:29.365Z,7.37
2022-09-28T05:09:55.906Z,7.31
2022-09-28T05:12:22.371Z,7.26
2022-09-28T05:14:48.776Z,7.13
2022-09-28T05:17:15.262Z,7.02
2022-09-28T05:19:41.714Z,6.91
2022-09-28T05:22:11.426Z,6.81
2022-09-28T05:24:38.779Z,6.76
2022-09-28T05:27:05.203Z,6.73
2022-09-28T05:29:32.615Z,6.75
2022-09-28T05:32:01.496Z,6.78
2022-09-28T05:34:28.227Z,6.82
2022-09-28T05:36:54.637Z,6.86
2022-09-28T05:39:21.067Z,6.89
2022-09-28T05:41:47.409Z,6.99
2022-09-28T05:44:13.907Z,7.13
2022-09-28T05:46:40.420Z,7.23
2022-09-28T05:49:06.775Z,7.34
2022-09-28T05:51:35.641Z,7.43
2022-09-28T05:54:05.926Z,7.50
2022-09-28T05:56:33.056Z,7.57
2022-09-28T05:58:59.534Z,7.63
2022-09-28T06:01:26.031Z,7.70
2022-09-28T06:03:52.509Z,7.72
2022-09-28T06:06:18.907Z,7.78
2022-09-28T06:08:46.286Z,7.81
2022-09-28T06:11:12.796Z,7.88
2022-09-28T06:13:40.429Z,7.92
2022-09-28T06:16:11.424Z,7.98
2022-09-28T06:18:37.928Z,8.07
2022-09-28T06:21:05.833Z,8.10
2022-09-28T06:23:32.263Z,8.19
2022-09-28T06:25:59.647Z,8.28
2022-09-28T06:28:26.871Z,8.25
2022-09-28T06:30:54.043Z,8.33
2022-09-28T06:33:20.670Z,8.43
2022-09-28T06:35:47.139Z,8.59
2022-09-28T06:38:13.663Z,8.73
2022-09-28T06:40:40.095Z,9.02
2022-09-28T06:43:11.205Z,9.18
2022-09-28T06:45:38.639Z,9.33
2022-09-28T06:48:06.406Z,9.38
2022-09-28T06:50:38.444Z,9.82
2022-09-28T06:53:12.040Z,9.87
2022-09-28T06:55:39.810Z,9.97
2022-09-28T06:58:09.684Z,10.07
2022-09-28T07:00:37.392Z,10.55
2022-09-28T07:03:06.658Z,10.66
2022-09-28T07:05:36.663Z,10.91
2022-09-28T07:08:04.502Z,10.97
2022-09-28T07:10:31.975Z,10.97
2022-09-28T07:13:02.661Z,10.61
2022-09-28T07:15:30.120Z,10.58
2022-09-28T07:18:02.849Z,10.48
2022-09-28T07:20:31.737Z,10.68
2022-09-28T07:23:12.921Z,10.51
2022-09-28T07:25:47.960Z,11.04
2022-09-28T07:28:15.160Z,11.71
2022-09-28T07:30:44.751Z,12.67
2022-09-28T07:33:14.431Z,13.96
2022-09-28T07:35:42.311Z,14.96
2022-09-28T07:38:10.743Z,15.90
2022-09-28T07:40:55.928Z,16.02
2022-09-28T07:43:22.523Z,15.26
2022-09-28T07:45:52.197Z,14.46
2022-09-28T07:48:19.202Z,14.34
2022-09-28T07:50:53.632Z,14.99
2022-09-28T07:53:22.858Z,14.24
2022-09-28T07:55:57.524Z,14.34
2022-09-28T07:58:23.941Z,14.32
2022-09-28T08:00:50.807Z,14.60
2022-09-28T08:03:18.932Z,15.04
2022-09-28T08:05:46.750Z,15.46
2022-09-28T08:08:13.885Z,15.53
2022-09-28T08:10:46.556Z,15.64
2022-09-28T08:13:15.160Z,15.55
2022-09-28T08:15:42.556Z,16.62
2022-09-28T08:18:09.474Z,17.61
2022-09-28T08:20:54.643Z,18.24
2022-09-28T08:23:21.093Z,18.43
2022-09-28T08:25:52.529Z,19.57
2022-09-28T08:28:18.984Z,20.35
2022-09-28T08:30:46.673Z,21.06
2022-09-28T08:33:14.168Z,21.61
2022-09-28T08:35:43.519Z,21.03
2022-09-28T08:38:10.077Z,20.73
2022-09-28T08:41:09.198Z,20.76
2022-09-28T08:44:02.238Z,20.15
2022-09-28T08:46:45.456Z,19.49
2022-09-28T08:49:26.471Z,18.92
2022-09-28T08:52:03.429Z,18.16
2022-09-28T08:54:51.737Z,17.68
2022-09-28T08:57:25.274Z,17.18
2022-09-28T08:59:54.103Z,16.45
2022-09-28T09:02:33.991Z,16.29
2022-09-28T09:05:03.802Z,15.97
2022-09-28T09:07:39.910Z,15.54
2022-09-28T09:10:33.871Z,15.10
2022-09-28T09:13:28.867Z,15.02
2022-09-28T09:16:17.007Z,14.72
2022-09-28T09:18:54.316Z,14.48
2022-09-28T09:21:41.869Z,14.14
2022-09-28T09:24:24.986Z,13.80
2022-09-28T09:27:04.190Z,13.61
2022-09-28T09:29:54.300Z,13.39
2022-09-28T09:32:30.658Z,13.12
2022-09-28T09:35:09.095Z,13.10
2022-09-28T09:38:02.719Z,13.14
2022-09-28T09:40:37.813Z,12.81
2022-09-28T09:43:19.646Z,13.01
2022-09-28T09:45:56.871Z,13.08
2022-09-28T09:48:31.337Z,12.97
2022-09-28T09:51:02.843Z,13.26
2022-09-28T09:53:45.934Z,13.51
2022-09-28T09:56:15.121Z,13.51
2022-09-28T09:58:48.750Z,14.13
2022-09-28T10:01:20.467Z,15.02
2022-09-28T10:03:48.680Z,15.72
2022-09-28T10:06:19.711Z,15.75
2022-09-28T10:08:50.256Z,17.39
2022-09-28T10:11:31.390Z,18.82
2022-09-28T10:13:57.861Z,19.02
2022-09-28T10:16:24.493Z,18.84
2022-09-28T10:18:50.968Z,20.45
2022-09-28T10:21:21.540Z,22.12
2022-09-28T10:23:53.327Z,22.81
2022-09-28T10:26:25.342Z,22.51
2022-09-28T10:29:04.172Z,18.37
2022-09-28T10:31:49.941Z,19.36
2022-09-28T10:34:23.694Z,19.15
2022-09-28T10:36:56.014Z,19.34
2022-09-28T10:39:46.856Z,18.50
2022-09-28T10:42:20.356Z,17.11
2022-09-28T10:44:55.074Z,18.14
2022-09-28T10:47:24.041Z,18.65
2022-09-28T10:49:51.690Z,19.45
2022-09-28T10:52:41.473Z,18.75
2022-09-28T10:55:32.343Z,18.36
2022-09-28T10:58:00.422Z,16.33
2022-09-28T11:00:41.889Z,16.38
2022-09-28T11:03:25.777Z,16.56
2022-09-28T11:06:08.545Z,17.20
2022-09-28T11:08:38.240Z,17.25
2022-09-28T11:11:10.907Z,16.77
2022-09-28T11:13:52.455Z,15.12
2022-09-28T11:16:28.885Z,14.69
2022-09-28T11:19:05.209Z,15.27
2022-09-28T11:21:41.558Z,14.67
2022-09-28T11:24:23.600Z,14.31
2022-09-28T11:26:53.278Z,14.75
2022-09-28T11:29:30.743Z,14.49
2022-09-28T11:32:03.251Z,14.65
2022-09-28T11:34:58.034Z,14.46
2022-09-28T11:37:43.901Z,14.44
2022-09-28T11:40:47.534Z,14.31
2022-09-28T11:43:20.721Z,14.16
2022-09-28T11:46:08.002Z,14.30
2022-09-28T11:48:44.004Z,14.40
2022-09-28T11:51:21.764Z,14.51
2022-09-28T11:54:20.848Z,14.51
2022-09-28T11:56:49.517Z,14.62
2022-09-28T11:59:26.682Z,13.93
2022-09-28T12:01:57.208Z,14.24
2022-09-28T12:04:31.492Z,13.65
2022-09-28T12:07:13.893Z,13.39
2022-09-28T12:09:49.873Z,13.32
2022-09-28T12:12:31.492Z,13.21
2022-09-28T12:15:04.776Z,14.02
2022-09-28T12:17:38.710Z,14.60
2022-09-28T12:20:17.804Z,15.47
2022-09-28T12:22:55.269Z,16.83
2022-09-28T12:25:23.219Z,15.88
2022-09-28T12:27:57.998Z,15.97
2022-09-28T12:30:25.884Z,14.92
2022-09-28T12:32:58.401Z,14.79
2022-09-28T12:35:58.755Z,15.06
2022-09-28T12:42:00.669Z,14.61
2022-09-28T12:44:43.340Z,14.57
2022-09-28T12:47:47.999Z,14.99
2022-09-28T12:50:39.919Z,14.88
2022-09-28T12:53:32.082Z,15.26
2022-09-28T12:56:11.740Z,15.33
2022-09-28T12:59:00.012Z,15.46
2022-09-28T13:01:38.876Z,16.81
2022-09-28T13:04:35.067Z,17.43
2022-09-28T13:07:25.945Z,17.63
2022-09-28T13:10:17.271Z,17.80
2022-09-28T13:13:02.626Z,17.69
2022-09-28T13:15:42.752Z,17.28
2022-09-28T13:18:29.219Z,17.41
2022-09-28T13:20:58.313Z,18.33
2022-09-28T13:23:34.527Z,18.37
2022-09-28T13:26:17.262Z,18.65
2022-09-28T13:28:46.864Z,17.99
2022-09-28T13:31:19.112Z,16.52
2022-09-28T13:33:46.724Z,16.91
2022-09-28T13:36:25.505Z,16.73
2022-09-28T13:38:53.074Z,16.46
2022-09-28T13:41:40.483Z,16.33
2022-09-28T13:44:22.166Z,16.23
2022-09-28T13:47:10.160Z,16.48
2022-09-28T13:49:42.170Z,16.76
2022-09-28T13:52:26.912Z,16.84
2022-09-28T13:55:12.157Z,17.65
2022-09-28T13:57:46.252Z,17.82
2022-09-28T14:00:38.028Z,17.21
2022-09-28T14:03:19.575Z,17.42
2022-09-28T14:05:53.258Z,18.03
2022-09-28T14:08:34.830Z,17.69
2022-09-28T14:11:36.817Z,18.71
2022-09-28T14:14:11.813Z,18.72
2022-09-28T14:16:40.591Z,19.47
2022-09-28T14:19:16.350Z,18.27
2022-09-28T14:22:19.005Z,18.33
2022-09-28T14:25:17.136Z,18.36
2022-09-28T14:28:06.541Z,18.36
2022-09-28T14:30:41.915Z,18.85
2022-09-28T14:33:28.796Z,18.48
2022-09-28T14:36:04.975Z,17.62
2022-09-28T14:38:54.688Z,18.14
2022-09-28T14:41:30.256Z,17.48
2022-09-28T14:44:08.648Z,16.56
2022-09-28T14:46:36.180Z,16.39
2022-09-28T14:49:25.002Z,16.50
2022-09-28T14:51:51.290Z,16.22
2022-09-28T14:54:21.098Z,16.29
2022-09-28T14:56:53.294Z,16.23
2022-09-28T14:59:25.033Z,16.77
2022-09-28T15:01:55.282Z,16.74
2022-09-28T15:04:26.146Z,17.08
2022-09-28T15:06:52.608Z,17.25
2022-09-28T15:09:31.301Z,16.77
2022-09-28T15:12:04.616Z,16.56
2022-09-28T15:14:35.228Z,15.50
2022-09-28T15:17:09.755Z,15.30
2022-09-28T15:19:51.083Z,14.82
2022-09-28T15:22:18.278Z,14.81
2022-09-28T15:24:53.800Z,14.64
2022-09-28T15:27:22.196Z,14.54
2022-09-28T15:30:15.902Z,14.14
2022-09-28T15:32:42.438Z,14.38
2022-09-28T15:35:14.373Z,14.38
2022-09-28T15:37:40.984Z,14.27
2022-09-28T15:40:14.957Z,14.07
2022-09-28T15:42:41.339Z,13.89
2022-09-28T15:45:13.667Z,13.63
2022-09-28T15:47:41.676Z,13.46
2022-09-28T15:50:22.033Z,13.35
2022-09-28T15:53:01.072Z,13.26
2022-09-28T15:55:37.091Z,13.02
2022-09-28T15:58:14.358Z,12.81
2022-09-28T16:00:41.567Z,12.77
2022-09-28T16:03:08.298Z,12.70
2022-09-28T16:06:05.058Z,12.54
2022-09-28T16:08:48.778Z,12.47
2022-09-28T16:11:26.119Z,12.33
2022-09-28T16:13:56.261Z,12.30
2022-09-28T16:16:29.972Z,12.19
2022-09-28T16:19:00.555Z,12.09
2022-09-28T16:21:44.517Z,12.05
2022-09-28T16:24:21.470Z,11.92
2022-09-28T16:26:54.449Z,11.79
2022-09-28T16:29:32.291Z,11.72
2022-09-28T16:32:33.573Z,11.58
2022-09-28T16:35:21.540Z,11.47
2022-09-28T16:37:55.463Z,11.54
2022-09-28T16:40:22.015Z,11.37
2022-09-28T16:42:49.482Z,11.33
2022-09-28T16:45:21.598Z,11.13
2022-09-28T16:47:51.825Z,11.09
2022-09-28T16:50:20.776Z,11.02
2022-09-28T16:53:09.362Z,10.89
2022-09-28T16:55:41.259Z,10.77
2022-09-28T16:58:08.173Z,10.72
2022-09-28T17:00:34.549Z,10.58
2022-09-28T17:03:00.975Z,10.54
2022-09-28T17:05:27.497Z,10.49
2022-09-28T17:08:02.549Z,10.46
2022-09-28T17:10:28.875Z,10.45
2022-09-28T17:12:55.899Z,10.35
2022-09-28T17:15:23.571Z,10.25
2022-09-28T17:17:50.452Z,10.15
2022-09-28T17:20:26.969Z,10.13
2022-09-28T17:22:53.662Z,10.03
2022-09-28T17:25:24.515Z,9.98
2022-09-28T17:27:51.647Z,9.94
2022-09-28T17:30:20.236Z,9.90
2022-09-28T17:32:48.868Z,9.86
2022-09-28T17:35:25.309Z,9.80
2022-09-28T17:37:52.597Z,9.77
2022-09-28T17:40:25.702Z,9.73
2022-09-28T17:42:55.983Z,9.63
2022-09-28T17:45:28.626Z,9.63
2022-09-28T17:47:55.646Z,9.57
2022-09-28T17:50:25.348Z,9.60
2022-09-28T17:52:52.976Z,9.49
2022-09-28T17:55:21.746Z,9.39
2022-09-28T17:57:48.529Z,9.32
2022-09-28T18:00:16.210Z,9.24
2022-09-28T18:02:44.197Z,9.18
2022-09-28T18:05:14.574Z,9.14
2022-09-28T18:07:46.776Z,9.07
2022-09-28T18:10:16.613Z,9.04
2022-09-28T18:12:43.473Z,8.97
2022-09-28T18:15:10.777Z,8.89
2022-09-28T18:17:38.059Z,8.84
2022-09-28T18:20:06.795Z,8.83
2022-09-28T18:22:33.229Z,8.84
2022-09-28T18:24:59.686Z,8.78
2022-09-28T18:27:29.001Z,8.74
2022-09-28T18:29:55.524Z,8.64
2022-09-28T18:32:22.210Z,8.59
2022-09-28T18:34:48.607Z,8.50
2022-09-28T18:37:15.128Z,8.44
2022-09-28T18:39:41.523Z,8.39
2022-09-28T18:42:07.973Z,8.30
2022-09-28T18:44:34.328Z,8.25
2022-09-28T18:47:02.269Z,8.17
2022-09-28T18:49:30.365Z,8.12
2022-09-28T18:51:57.277Z,8.09
2022-09-28T18:54:24.402Z,8.02
2022-09-28T18:56:54.841Z,7.99
2022-09-28T18:59:21.202Z,7.96
2022-09-28T19:01:47.822Z,7.91
2022-09-28T19:04:14.360Z,7.89
2022-09-28T19:06:44.259Z,7.78
2022-09-28T19:09:10.962Z,7.71
2022-09-28T19:11:37.369Z,7.68
2022-09-28T19:14:03.822Z,7.65
2022-09-28T19:16:31.123Z,7.60
2022-09-28T19:18:58.362Z,7.53
2022-09-28T19:21:25.479Z,7.50
2022-09-28T19:23:53.543Z,7.44
2022-09-28T19:26:26.066Z,7.37
2022-09-28T19:28:52.945Z,7.34
2022-09-28T19:31:19.609Z,7.35
2022-09-28T19:33:46.669Z,7.43
2022-09-28T19:36:18.179Z,7.51
2022-09-28T19:38:45.583Z,7.57
2022-09-28T19:41:42.827Z,7.61
2022-09-28T19:44:24.291Z,7.67
2022-09-28T19:46:53.220Z,7.75
2022-09-28T19:49:20.449Z,7.77
2022-09-28T19:52:10.941Z,7.84
2022-09-28T19:54:36.753Z,7.89
2022-09-28T19:57:08.565Z,7.91
2022-09-28T19:59:37.062Z,7.95
2022-09-28T20:02:05.491Z,7.99
2022-09-28T20:04:31.879Z,8.02
2022-09-28T20:06:58.262Z,8.06
2022-09-28T20:09:24.671Z,8.09
2022-09-28T20:11:51.832Z,8.09
2022-09-28T20:14:23.361Z,8.12
2022-09-28T20:16:52.258Z,8.10
2022-09-28T20:19:21.377Z,8.13
2022-09-28T20:21:48.366Z,8.12
2022-09-28T20:24:16.155Z,8.12
2022-09-28T20:26:44.380Z,8.12
2022-09-28T20:29:10.760Z,8.15
2022-09-28T20:31:37.311Z,8.22
2022-09-28T20:34:05.022Z,8.25
2022-09-28T20:36:32.004Z,8.21
2022-09-28T20:39:03.996Z,8.26
2022-09-28T20:41:36.454Z,8.23
2022-09-28T20:44:06.131Z,8.29
2022-09-28T20:46:34.577Z,8.28
2022-09-28T20:49:01.324Z,8.29
2022-09-28T20:51:27.768Z,8.26
2022-09-28T20:53:56.215Z,8.25
2022-09-28T20:56:27.502Z,8.28
2022-09-28T20:58:55.146Z,8.28
2022-09-28T21:01:24.048Z,8.32
2022-09-28T21:04:10.417Z,8.29
2022-09-28T21:06:39.141Z,8.32
2022-09-28T21:09:07.114Z,8.33
2022-09-28T21:11:35.444Z,8.33
2022-09-28T21:14:04.463Z,8.33
2022-09-28T21:16:32.560Z,8.36
2022-09-28T21:18:59.261Z,8.33
2022-09-28T21:21:26.296Z,8.39
2022-09-28T21:23:53.636Z,8.36
2022-09-28T21:26:25.963Z,8.33
2022-09-28T21:28:53.879Z,8.40
2022-09-28T21:31:23.709Z,8.42
2022-09-28T21:33:54.042Z,8.43
2022-09-28T21:36:20.436Z,8.37
2022-09-28T21:38:46.863Z,8.34
2022-09-28T21:41:13.301Z,8.33
2022-09-28T21:43:39.799Z,8.33
2022-09-28T21:46:06.498Z,8.33
2022-09-28T21:48:33.026Z,8.37
2022-09-28T21:51:04.832Z,8.43
2022-09-28T21:53:32.983Z,8.43
2022-09-28T21:56:00.495Z,8.40
2022-09-28T21:58:29.670Z,8.36
2022-09-28T22:01:08.849Z,8.32
2022-09-28T22:03:36.573Z,8.30
2022-09-28T22:06:04.337Z,8.33
2022-09-28T22:08:30.822Z,8.34
2022-09-28T22:11:01.722Z,8.29
2022-09-28T22:13:41.325Z,8.26
2022-09-28T22:16:08.757Z,8.29
2022-09-28T22:18:35.272Z,8.29
2022-09-28T22:21:02.794Z,8.32
2022-09-28T22:23:30.303Z,8.33
2022-09-28T22:26:06.995Z,8.33
2022-09-28T22:28:33.854Z,8.30
2022-09-28T22:31:00.571Z,8.28
2022-09-28T22:33:27.318Z,8.26
2022-09-28T22:35:54.951Z,8.23
2022-09-28T22:38:23.627Z,8.25
2022-09-28T22:40:55.431Z,8.23
2022-09-28T22:43:23.414Z,8.21
2022-09-28T22:45:50.476Z,8.22
2022-09-28T22:48:17.076Z,8.26
2022-09-28T22:50:50.875Z,8.26
2022-09-28T22:53:17.942Z,8.25
2022-09-28T22:55:44.806Z,8.28
2022-09-28T22:58:11.247Z,8.28
2022-09-28T23:00:38.195Z,8.26
2022-09-28T23:03:04.812Z,8.25
2022-09-28T23:05:31.318Z,8.28
2022-09-28T23:07:57.725Z,8.26
2022-09-28T23:10:24.354Z,8.30
2022-09-28T23:12:53.420Z,8.32
2022-09-28T23:15:20.224Z,8.26
2022-09-28T23:17:51.177Z,8.28
2022-09-28T23:20:17.675Z,8.28
2022-09-28T23:22:48.308Z,8.29
2022-09-28T23:25:15.657Z,8.26
2022-09-28T23:27:46.864Z,8.25
2022-09-28T23:30:14.614Z,8.25
2022-09-28T23:32:41.696Z,8.25
2022-09-28T23:35:08.605Z,8.25
2022-09-28T23:37:35.150Z,8.23
2022-09-28T23:40:02.952Z,8.25
2022-09-28T23:42:29.361Z,8.28
2022-09-28T23:44:55.855Z,8.25
2022-09-28T23:47:22.279Z,8.25
2022-09-28T23:49:48.768Z,8.22
2022-09-28T23:52:15.194Z,8.26
2022-09-28T23:54:41.527Z,8.21
2022-09-28T23:57:07.923Z,8.25
2022-09-28T23:59:34.279Z,8.22
